Time,TemperatureF,DewpointF,PressureIn,WindDirection,WindDirectionDegrees,WindSpeedMPH,WindSpeedGustMPH,Humidity,HourlyPrecipIn,Conditions,Clouds,dailyrainin,SoftwareType,DateUTC
2013-03-24 00:02:00,70.0,65.0,29.64,NE,54,0.0,4.0,84,0.00,,,0.01,,2013-03-24 05:02:00,
2013-03-24 00:12:00,70.0,65.0,29.64,NE,54,0.0,4.0,84,0.00,,,0.01,,2013-03-24 05:12:00,
2013-03-24 00:22:00,68.0,63.0,29.65,NE,51,1.0,5.0,85,0.00,,,0.01,,2013-03-24 05:22:00,
2013-03-24 00:32:00,68.0,63.0,29.65,NE,49,0.0,3.0,85,0.00,,,0.01,,2013-03-24 05:32:00,
2013-03-24 00:42:00,68.0,63.0,29.65,NE,49,0.0,3.0,85,0.00,,,0.01,,2013-03-24 05:42:00,
2013-03-24 00:52:00,67.0,62.0,29.65,NE,49,0.0,0.0,85,0.00,,,0.01,,2013-03-24 05:52:00,
2013-03-24 01:02:00,67.0,62.0,29.65,NE,49,0.0,0.0,85,0.00,,,0.01,,2013-03-24 06:02:00,
2013-03-24 01:12:00,67.0,62.0,29.65,NE,49,0.0,0.0,85,0.00,,,0.01,,2013-03-24 06:12:00,
2013-03-24 01:22:00,67.0,63.0,29.65,NE,49,0.0,4.0,86,0.00,,,0.01,,2013-03-24 06:22:00,
2013-03-24 01:32:00,67.0,62.0,29.65,NE,49,0.0,0.0,85,0.00,,,0.01,,2013-03-24 06:32:00,
2013-03-24 01:42:00,67.0,62.0,29.65,NE,49,0.0,0.0,85,0.00,,,0.01,,2013-03-24 06:42:00,
2013-03-24 01:52:00,66.0,61.0,29.65,NE,49,0.0,0.0,85,0.00,,,0.01,,2013-03-24 06:52:00,
2013-03-24 02:02:00,66.0,62.0,29.66,NE,49,0.0,3.0,86,0.00,,,0.01,,2013-03-24 07:02:00,
2013-03-24 02:12:00,66.0,62.0,29.66,NE,49,0.0,3.0,86,0.00,,,0.01,,2013-03-24 07:12:00,
2013-03-24 02:22:00,66.0,62.0,29.65,NE,49,0.0,2.0,86,0.00,,,0.01,,2013-03-24 07:22:00,
2013-03-24 02:32:00,66.0,62.0,29.65,NE,49,0.0,3.0,86,0.00,,,0.01,,2013-03-24 07:32:00,
2013-03-24 02:42:00,66.0,62.0,29.65,NE,49,0.0,3.0,86,0.00,,,0.01,,2013-03-24 07:42:00,
2013-03-24 02:52:00,66.0,62.0,29.63,NE,49,0.0,2.0,86,0.00,,,0.01,,2013-03-24 07:52:00,
2013-03-24 03:03:00,66.0,62.0,29.64,NE,49,0.0,0.0,86,0.00,,,0.01,,2013-03-24 08:03:00,
2013-03-24 03:12:00,66.0,62.0,29.64,NE,49,0.0,0.0,86,0.00,,,0.01,,2013-03-24 08:12:00,
2013-03-24 03:22:00,66.0,62.0,29.64,NE,49,0.0,1.0,86,0.00,,,0.01,,2013-03-24 08:22:00,
2013-03-24 03:32:00,66.0,62.0,29.63,NE,49,0.0,0.0,86,0.00,,,0.01,,2013-03-24 08:32:00,
2013-03-24 03:42:00,66.0,62.0,29.63,NE,49,0.0,0.0,86,0.00,,,0.01,,2013-03-24 08:42:00,
2013-03-24 03:52:00,66.0,61.0,29.62,NE,49,0.0,0.0,85,0.00,,,0.01,,2013-03-24 08:52:00,
2013-03-24 04:02:00,66.0,62.0,29.62,NE,49,0.0,1.0,86,0.00,,,0.01,,2013-03-24 09:02:00,
2013-03-24 04:12:00,66.0,62.0,29.62,NE,49,0.0,1.0,86,0.00,,,0.01,,2013-03-24 09:12:00,
2013-03-24 04:22:00,66.0,61.0,29.62,NE,49,0.0,0.0,85,0.00,,,0.01,,2013-03-24 09:22:00,
2013-03-24 04:33:00,66.0,62.0,29.67,NNW,339,3.0,13.0,86,0.00,,,0.01,,2013-03-24 09:33:00,
2013-03-24 04:42:00,66.0,62.0,29.67,NNW,339,3.0,13.0,86,0.00,,,0.01,,2013-03-24 09:42:00,
2013-03-24 04:52:00,65.0,61.0,29.68,NNW,334,5.0,11.0,86,0.00,,,0.01,,2013-03-24 09:52:00,
2013-03-24 05:03:00,64.0,60.0,29.69,NNW,338,3.0,7.0,86,0.00,,,0.01,,2013-03-24 10:03:00,
2013-03-24 05:12:00,64.0,60.0,29.69,NNW,338,3.0,7.0,86,0.00,,,0.01,,2013-03-24 10:12:00,
2013-03-24 05:22:00,64.0,59.0,29.69,NNW,339,0.0,4.0,85,0.00,,,0.01,,2013-03-24 10:22:00,
2013-03-24 05:32:00,64.0,59.0,29.71,NNW,334,3.0,5.0,85,0.00,,,0.01,,2013-03-24 10:32:00,
2013-03-24 05:42:00,64.0,59.0,29.71,NNW,334,3.0,5.0,85,0.00,,,0.01,,2013-03-24 10:42:00,
2013-03-24 05:52:00,64.0,59.0,29.71,NW,309,4.0,11.0,85,0.00,,,0.01,,2013-03-24 10:52:00,
2013-03-24 06:03:00,64.0,59.0,29.72,NNW,340,4.0,9.0,85,0.00,,,0.01,,2013-03-24 11:03:00,
2013-03-24 06:12:00,64.0,59.0,29.72,NNW,340,4.0,9.0,85,0.00,,,0.01,,2013-03-24 11:12:00,
2013-03-24 06:22:00,63.0,58.0,29.73,NW,321,3.0,9.0,85,0.00,,,0.01,,2013-03-24 11:22:00,
2013-03-24 06:32:00,63.0,59.0,29.75,WNW,300,5.0,12.0,86,0.00,,,0.01,,2013-03-24 11:32:00,
2013-03-24 06:42:00,63.0,59.0,29.75,WNW,300,5.0,12.0,86,0.00,,,0.01,,2013-03-24 11:42:00,
2013-03-24 06:52:00,63.0,59.0,29.75,NW,320,5.0,13.0,87,0.00,,,0.01,,2013-03-24 11:52:00,
2013-03-24 07:02:00,62.0,58.0,29.76,NNW,340,4.0,11.0,88,0.00,,,0.01,,2013-03-24 12:02:00,
2013-03-24 07:12:00,62.0,58.0,29.76,NNW,340,4.0,11.0,88,0.00,,,0.01,,2013-03-24 12:12:00,
2013-03-24 07:22:00,62.0,58.0,29.77,NNW,338,7.0,12.0,88,0.00,,,0.01,,2013-03-24 12:22:00,
2013-03-24 07:32:00,62.0,58.0,29.78,NNW,344,5.0,13.0,88,0.00,,,0.01,,2013-03-24 12:32:00,
2013-03-24 07:42:00,62.0,58.0,29.78,NNW,344,5.0,13.0,88,0.00,,,0.01,,2013-03-24 12:42:00,
2013-03-24 07:52:00,61.0,57.0,29.79,NNW,336,5.0,12.0,88,0.00,,,0.01,,2013-03-24 12:52:00,
2013-03-24 08:02:00,61.0,57.0,29.80,WNW,298,6.0,14.0,88,0.00,,,0.01,,2013-03-24 13:02:00,
2013-03-24 08:12:00,61.0,57.0,29.80,WNW,298,6.0,14.0,88,0.00,,,0.01,,2013-03-24 13:12:00,
2013-03-24 08:22:00,61.0,57.0,29.81,NNW,341,3.0,7.0,88,0.00,,,0.01,,2013-03-24 13:22:00,
2013-03-24 08:32:00,62.0,58.0,29.82,NW,319,6.0,11.0,87,0.00,,,0.01,,2013-03-24 13:32:00,
2013-03-24 08:42:00,62.0,58.0,29.82,NW,319,6.0,11.0,87,0.00,,,0.01,,2013-03-24 13:42:00,
2013-03-24 08:52:00,61.0,55.0,29.83,NNW,340,8.0,18.0,80,0.00,,,0.01,,2013-03-24 13:52:00,
2013-03-24 09:02:00,61.0,55.0,29.85,WNW,302,6.0,14.0,80,0.00,,,0.01,,2013-03-24 14:02:00,
2013-03-24 09:12:00,61.0,55.0,29.85,WNW,302,6.0,14.0,80,0.00,,,0.01,,2013-03-24 14:12:00,
2013-03-24 09:22:00,60.0,54.0,29.87,NNW,328,8.0,15.0,80,0.00,,,0.01,,2013-03-24 14:22:00,
2013-03-24 09:32:00,60.0,53.0,29.87,NNW,336,7.0,15.0,78,0.00,,,0.01,,2013-03-24 14:32:00,
2013-03-24 09:42:00,60.0,53.0,29.87,NNW,336,7.0,15.0,78,0.00,,,0.01,,2013-03-24 14:42:00,
2013-03-24 09:52:00,61.0,53.0,29.88,NW,324,7.0,19.0,75,0.00,,,0.01,,2013-03-24 14:52:00,
2013-03-24 10:02:00,61.0,52.0,29.88,NW,308,6.0,15.0,72,0.00,,,0.01,,2013-03-24 15:02:00,
2013-03-24 10:12:00,61.0,52.0,29.88,NW,308,6.0,15.0,72,0.00,,,0.01,,2013-03-24 15:12:00,
2013-03-24 10:22:00,62.0,51.0,29.88,WNW,293,9.0,19.0,66,0.00,,,0.01,,2013-03-24 15:22:00,
2013-03-24 10:33:00,62.0,50.0,29.89,NNW,335,10.0,17.0,65,0.00,,,0.01,,2013-03-24 15:33:00,
2013-03-24 10:43:00,62.0,50.0,29.89,NNW,335,10.0,17.0,65,0.00,,,0.01,,2013-03-24 15:43:00,
2013-03-24 10:53:00,63.0,51.0,29.90,WNW,301,6.0,16.0,66,0.00,,,0.01,,2013-03-24 15:53:00,
2013-03-24 11:03:00,63.0,51.0,29.90,NW,312,8.0,15.0,66,0.00,,,0.01,,2013-03-24 16:03:00,
2013-03-24 11:12:00,63.0,51.0,29.90,NW,312,8.0,15.0,66,0.00,,,0.01,,2013-03-24 16:12:00,
2013-03-24 11:22:00,63.0,48.0,29.90,NW,310,7.0,16.0,59,0.00,,,0.01,,2013-03-24 16:22:00,
2013-03-24 11:33:00,64.0,47.0,29.91,NNW,332,9.0,18.0,54,0.00,,,0.01,,2013-03-24 16:33:00,
2013-03-24 11:42:00,64.0,47.0,29.91,NNW,332,9.0,18.0,54,0.00,,,0.01,,2013-03-24 16:42:00,
2013-03-24 11:52:00,64.0,48.0,29.91,NW,315,7.0,15.0,56,0.00,,,0.01,,2013-03-24 16:52:00,
2013-03-24 12:02:00,64.0,47.0,29.91,WNW,300,10.0,18.0,53,0.00,,,0.01,,2013-03-24 17:02:00,
2013-03-24 12:12:00,64.0,47.0,29.91,WNW,300,10.0,18.0,53,0.00,,,0.01,,2013-03-24 17:12:00,
2013-03-24 12:23:00,64.0,44.0,29.91,WNW,300,7.0,22.0,49,0.00,,,0.01,,2013-03-24 17:23:00,
2013-03-24 12:32:00,64.0,42.0,29.92,NNW,335,11.0,19.0,45,0.00,,,0.01,,2013-03-24 17:32:00,
2013-03-24 12:42:00,64.0,42.0,29.92,NNW,335,11.0,19.0,45,0.00,,,0.01,,2013-03-24 17:42:00,
2013-03-24 12:53:00,64.0,45.0,29.92,NW,315,9.0,17.0,50,0.00,,,0.01,,2013-03-24 17:53:00,
2013-03-24 13:02:00,64.0,44.0,29.92,NW,313,6.0,19.0,48,0.00,,,0.01,,2013-03-24 18:02:00,
2013-03-24 13:12:00,64.0,44.0,29.92,NW,313,6.0,19.0,48,0.00,,,0.01,,2013-03-24 18:12:00,
2013-03-24 13:22:00,63.0,42.0,29.92,WNW,302,6.0,22.0,47,0.00,,,0.01,,2013-03-24 18:22:00,
2013-03-24 13:32:00,64.0,39.0,29.92,WNW,301,9.0,18.0,40,0.00,,,0.01,,2013-03-24 18:32:00,
2013-03-24 13:43:00,64.0,39.0,29.92,WNW,301,9.0,18.0,40,0.00,,,0.01,,2013-03-24 18:43:00,
2013-03-24 13:52:00,64.0,39.0,29.92,North,355,10.0,21.0,40,0.00,,,0.01,,2013-03-24 18:52:00,
2013-03-24 14:02:00,64.0,38.0,29.93,NW,313,10.0,21.0,38,0.00,,,0.01,,2013-03-24 19:02:00,
2013-03-24 14:12:00,64.0,38.0,29.93,NW,313,10.0,21.0,38,0.00,,,0.01,,2013-03-24 19:12:00,
2013-03-24 14:22:00,63.0,37.0,29.93,NNW,327,7.0,19.0,38,0.00,,,0.01,,2013-03-24 19:22:00,
2013-03-24 14:32:00,64.0,39.0,29.92,NW,304,7.0,19.0,39,0.00,,,0.01,,2013-03-24 19:32:00,
2013-03-24 14:42:00,64.0,39.0,29.92,NW,304,7.0,19.0,39,0.00,,,0.01,,2013-03-24 19:42:00,
2013-03-24 14:53:00,63.0,36.0,29.92,West,278,9.0,21.0,37,0.00,,,0.01,,2013-03-24 19:53:00,
2013-03-24 15:02:00,63.0,38.0,29.91,NNW,331,9.0,18.0,40,0.00,,,0.01,,2013-03-24 20:02:00,
2013-03-24 15:12:00,63.0,38.0,29.91,NNW,331,9.0,18.0,40,0.00,,,0.01,,2013-03-24 20:12:00,
2013-03-24 15:22:00,64.0,37.0,29.91,WNW,296,8.0,14.0,37,0.00,,,0.01,,2013-03-24 20:22:00,
2013-03-24 15:32:00,64.0,39.0,29.91,NNW,327,10.0,17.0,40,0.00,,,0.01,,2013-03-24 20:32:00,
2013-03-24 15:42:00,64.0,39.0,29.91,NNW,327,10.0,17.0,40,0.00,,,0.01,,2013-03-24 20:42:00,
2013-03-24 15:53:00,64.0,40.0,29.90,NW,304,8.0,19.0,41,0.00,,,0.01,,2013-03-24 20:53:00,
2013-03-24 16:02:00,64.0,39.0,29.90,NNW,327,7.0,15.0,40,0.00,,,0.01,,2013-03-24 21:02:00,
2013-03-24 16:12:00,64.0,39.0,29.90,NNW,327,7.0,15.0,40,0.00,,,0.01,,2013-03-24 21:12:00,
2013-03-24 16:22:00,64.0,39.0,29.90,NW,323,7.0,16.0,40,0.00,,,0.01,,2013-03-24 21:22:00,
2013-03-24 16:33:00,64.0,40.0,29.90,NNW,348,7.0,15.0,41,0.00,,,0.01,,2013-03-24 21:33:00,
2013-03-24 16:43:00,64.0,40.0,29.90,NNW,348,7.0,15.0,41,0.00,,,0.01,,2013-03-24 21:43:00,
2013-03-24 16:53:00,64.0,39.0,29.90,North,11,8.0,14.0,40,0.00,,,0.01,,2013-03-24 21:53:00,
2013-03-24 17:02:00,64.0,40.0,29.90,NNW,342,5.0,15.0,42,0.00,,,0.01,,2013-03-24 22:02:00,
2013-03-24 17:13:00,64.0,40.0,29.90,NNW,342,5.0,15.0,42,0.00,,,0.01,,2013-03-24 22:13:00,
2013-03-24 17:23:00,64.0,39.0,29.90,NNW,327,6.0,14.0,40,0.00,,,0.01,,2013-03-24 22:23:00,
2013-03-24 17:33:00,64.0,39.0,29.90,WNW,302,7.0,15.0,39,0.00,,,0.01,,2013-03-24 22:33:00,
2013-03-24 17:42:00,64.0,39.0,29.90,WNW,302,7.0,15.0,39,0.00,,,0.01,,2013-03-24 22:42:00,
2013-03-24 17:52:00,63.0,37.0,29.91,NW,322,8.0,15.0,38,0.00,,,0.01,,2013-03-24 22:52:00,
2013-03-24 18:02:00,63.0,37.0,29.91,NW,325,8.0,16.0,38,0.00,,,0.01,,2013-03-24 23:02:00,
2013-03-24 18:12:00,63.0,37.0,29.91,NW,325,8.0,16.0,38,0.00,,,0.01,,2013-03-24 23:12:00,
2013-03-24 18:22:00,62.0,36.0,29.91,NNW,342,6.0,13.0,38,0.00,,,0.01,,2013-03-24 23:22:00,
2013-03-24 18:32:00,61.0,35.0,29.92,NW,311,7.0,17.0,37,0.00,,,0.01,,2013-03-24 23:32:00,
2013-03-24 18:42:00,61.0,35.0,29.92,NW,311,7.0,17.0,37,0.00,,,0.01,,2013-03-24 23:42:00,
2013-03-24 18:53:00,60.0,36.0,29.93,NW,304,4.0,12.0,41,0.00,,,0.01,,2013-03-24 23:53:00,
2013-03-24 19:02:00,59.0,37.0,29.93,NNW,344,5.0,13.0,43,0.00,,,0.01,,2013-03-25 00:02:00,
2013-03-24 19:12:00,59.0,37.0,29.93,NNW,344,5.0,13.0,43,0.00,,,0.01,,2013-03-25 00:12:00,
2013-03-24 19:22:00,58.0,36.0,29.94,NNW,338,6.0,17.0,43,0.00,,,0.01,,2013-03-25 00:22:00,
2013-03-24 19:32:00,57.0,35.0,29.95,NNW,346,6.0,13.0,44,0.00,,,0.01,,2013-03-25 00:32:00,
2013-03-24 19:42:00,57.0,35.0,29.95,NNW,346,6.0,13.0,44,0.00,,,0.01,,2013-03-25 00:42:00,
2013-03-24 19:53:00,56.0,35.0,29.97,NNW,341,7.0,14.0,45,0.00,,,0.01,,2013-03-25 00:53:00,
2013-03-24 20:02:00,55.0,36.0,29.98,NNW,346,4.0,10.0,48,0.00,,,0.01,,2013-03-25 01:02:00,
2013-03-24 20:12:00,55.0,36.0,29.98,NNW,346,4.0,10.0,48,0.00,,,0.01,,2013-03-25 01:12:00,
2013-03-24 20:22:00,54.0,36.0,29.98,North,355,3.0,8.0,51,0.00,,,0.01,,2013-03-25 01:22:00,
2013-03-24 20:32:00,53.0,38.0,29.99,North,355,2.0,5.0,56,0.00,,,0.01,,2013-03-25 01:32:00,
2013-03-24 20:42:00,53.0,38.0,29.99,North,355,2.0,5.0,56,0.00,,,0.01,,2013-03-25 01:42:00,
2013-03-24 20:52:00,52.0,38.0,30.01,North,355,2.0,4.0,58,0.00,,,0.01,,2013-03-25 01:52:00,
2013-03-24 21:02:00,51.0,38.0,30.01,North,355,1.0,7.0,60,0.00,,,0.01,,2013-03-25 02:02:00,
2013-03-24 21:12:00,51.0,38.0,30.01,North,355,1.0,7.0,60,0.00,,,0.01,,2013-03-25 02:12:00,
2013-03-24 21:22:00,51.0,39.0,30.02,North,355,0.0,1.0,63,0.00,,,0.01,,2013-03-25 02:22:00,
2013-03-24 21:32:00,50.0,39.0,30.03,North,355,0.0,1.0,67,0.00,,,0.01,,2013-03-25 02:32:00,
2013-03-24 21:42:00,50.0,39.0,30.03,North,355,0.0,1.0,67,0.00,,,0.01,,2013-03-25 02:42:00,
2013-03-24 21:52:00,49.0,40.0,30.03,North,355,0.0,0.0,71,0.00,,,0.01,,2013-03-25 02:52:00,
2013-03-24 22:02:00,48.0,40.0,30.04,North,355,0.0,3.0,73,0.00,,,0.01,,2013-03-25 03:02:00,
2013-03-24 22:13:00,48.0,40.0,30.04,North,355,0.0,3.0,73,0.00,,,0.01,,2013-03-25 03:13:00,
2013-03-24 22:22:00,48.0,39.0,30.05,North,355,0.0,3.0,72,0.00,,,0.00,,2013-03-25 03:22:00,
2013-03-24 22:33:00,47.0,38.0,30.06,North,355,0.0,1.0,72,0.00,,,0.00,,2013-03-25 03:33:00,
2013-03-24 22:42:00,47.0,39.0,30.06,North,355,0.0,0.0,74,0.00,,,0.00,,2013-03-25 03:42:00,
2013-03-24 22:53:00,47.0,39.0,30.06,North,355,0.0,0.0,74,0.00,,,0.00,,2013-03-25 03:53:00,
2013-03-24 23:02:00,46.0,40.0,30.08,North,355,0.0,0.0,78,0.00,,,0.00,,2013-03-25 04:02:00,
2013-03-24 23:12:00,46.0,40.0,30.08,North,355,0.0,0.0,78,0.00,,,0.00,,2013-03-25 04:12:00,
2013-03-24 23:22:00,45.0,40.0,30.09,North,355,0.0,0.0,81,0.00,,,0.00,,2013-03-25 04:22:00,
2013-03-24 23:33:00,44.0,39.0,30.09,North,355,0.0,0.0,84,0.00,,,0.00,,2013-03-25 04:33:00,
2013-03-24 23:43:00,44.0,39.0,30.09,North,355,0.0,0.0,84,0.00,,,0.00,,2013-03-25 04:43:00,
2013-03-24 23:52:00,44.0,39.0,30.09,North,355,0.0,0.0,84,0.00,,,0.00,,2013-03-25 04:52:00,